Bei Facebook empfehlenBei Twitter postenGoogle plusPinterest

Das Wetter im Erzgebirge am 12.03.2015

Wetter und Klima am 12.03.2015 Holzhau im Erzgebirge (630m ü.NN)
Letzte gemessene Temperatur und Uhrzeit der Messung23:45:00 Uhr-0.60 °C
Temperatur (Maximum / Höchstwert) und Uhrzeit der Messung10:45:00 Uhr3.30 °C
Temperatur (Minimum / Tiefstwert) und Uhrzeit der Messung23:45:00-0.60 °C
Errechneter Absolutwert der Temperaturschwankungen zwischen Tmin und Tmax des Tages3.90 K
Errechnete Tagesmitteltemperatur0.70417 °C
Gesamt - Niederschlag des Tages (in flüssiger Form)1.04 Liter / m²
Luftdruck (Maximum / Höchstwert) und Zeitpunkt der Messung11:00:00 Uhr1025.90 hPa
Luftdruck (Minimum / Tiefstwert) und Zeitpunkt der Messung23:45:00 Uhr1023.80 hPa
Errechneter Absolutwert der Luftdruckschwankungen des Tages2.10 hPa
Höchste gemessene Windgeschwindigkeit und Uhrzeit der Messung14:00:00 Uhr8.28 km/h
Errechnete Windhäufigkeit in Relation zu den Messwerten des Tages4.16667 %
Niedrigste Windkühle (Windchill) und Zeitpunkt der Messung23:45:00 Uhr-0.60 °C
Taupunkt (Maximum / Höchstwert) und Uhrzeit der Messung10:45:00 Uhr1.30 °C
Taupunkt (Minimum / Tiefstwert) und Uhrzeit der Messung23:45:00-2.00 °C
Anzahl der automatisch eingelesenen Messwerte 96

Detaillierte Wetter- und Klima- Messwerte für den 12.03.2015 in Holzhau im Erzgebirge (630m ü.NN)
ZeitTemperaturLuftdruckRel. LuftfeuchteWindWindrichtungWindchillTaupunktNiederschlag l/m²
23:45:00-0.60 °C1023.80 hPa91.00 %-2.00 °C1.04
23:30:00-0.60 °C1024.00 hPa91.00 %-2.00 °C1.04
23:15:00-0.60 °C1024.10 hPa91.00 %-2.00 °C1.04
23:00:00-0.60 °C1024.20 hPa91.00 %-2.00 °C1.04
22:45:00-0.60 °C1024.30 hPa91.00 %-2.00 °C1.04
22:30:00-0.60 °C1024.60 hPa91.00 %-2.00 °C1.04
22:15:00-0.60 °C1024.80 hPa91.00 %-2.00 °C1.04
22:00:00-0.50 °C1024.70 hPa91.00 %-1.90 °C1.04
21:45:00-0.60 °C1024.80 hPa91.00 %-2.00 °C1.04
21:30:00-0.60 °C1024.80 hPa91.00 %-2.00 °C1.04
21:15:00-0.60 °C1025.00 hPa91.00 %-2.00 °C1.04
21:00:00-0.60 °C1024.90 hPa91.00 %-2.00 °C1.04
20:45:00-0.50 °C1024.80 hPa91.00 %-1.90 °C1.04
20:30:00-0.50 °C1025.10 hPa91.00 %-1.90 °C1.04
20:15:00-0.60 °C1024.90 hPa91.00 %-2.00 °C1.04
20:00:00-0.60 °C1024.90 hPa91.00 %-2.00 °C1.04
19:45:00-0.60 °C1024.90 hPa91.00 %-2.00 °C1.04
19:30:00-0.60 °C1025.10 hPa91.00 %-2.00 °C1.04
19:15:00-0.50 °C1025.10 hPa91.00 %-1.90 °C1.04
19:00:00-0.50 °C1025.10 hPa91.00 %-1.90 °C1.04
18:45:00-0.50 °C1025.00 hPa91.00 %-1.90 °C1.04
18:30:00-0.40 °C1025.00 hPa91.00 %-1.80 °C1.04
18:15:00-0.20 °C1025.00 hPa91.00 %-1.60 °C1.04
18:00:00-0.20 °C1024.90 hPa91.00 %-1.60 °C1.04
17:45:00-0.40 °C1024.80 hPa90.00 %-2.00 °C1.04
17:30:00-0.30 °C1024.90 hPa90.00 %-1.90 °C1.04
17:15:00-0.20 °C1024.90 hPa90.00 %-1.80 °C1.04
17:00:00-0.10 °C1024.80 hPa89.00 %-1.90 °C1.04
16:45:00-0.10 °C1024.90 hPa89.00 %-1.90 °C1.04
16:30:000.10 °C1025.00 hPa88.00 %-1.60 °C1.04
16:15:000.20 °C1025.00 hPa88.00 %-1.50 °C1.04
16:00:000.40 °C1025.20 hPa88.00 %-1.30 °C1.04
15:45:000.40 °C1025.40 hPa87.00 %-1.50 °C1.04
15:30:000.80 °C1025.40 hPa86.00 %-1.30 °C1.04
15:15:001.20 °C1025.50 hPa85.00 %-1.00 °C1.04
15:00:001.50 °C1025.50 hPa84.00 %-0.90 °C1.04
14:45:001.70 °C1025.50 hPa85.00 %-0.50 °C1.04
14:30:001.50 °C1025.50 hPa85.00 %-0.70 °C1.04
14:15:001.60 °C1025.50 hPa84.00 %-0.80 °C1.04
14:00:001.90 °C1025.60 hPa84.00 %8.28 km/hWNW-0.60 °C-0.50 °C1.04
13:45:002.20 °C1025.50 hPa83.00 %4.32 km/hNW2.20 °C-0.40 °C1.04
13:30:002.30 °C1025.50 hPa83.00 %-0.30 °C1.04
13:15:002.40 °C1025.50 hPa84.00 %0.00 °C1.04
13:00:002.40 °C1025.60 hPa84.00 %0.00 °C1.04
12:45:002.60 °C1025.60 hPa84.00 %0.20 °C1.04
12:30:002.50 °C1025.70 hPa84.00 %0.10 °C1.04
12:15:002.50 °C1025.70 hPa84.00 %1.08 km/hNNW2.50 °C0.10 °C1.04
12:00:002.40 °C1025.70 hPa84.00 %0.00 °C1.04
11:45:002.70 °C1025.70 hPa84.00 %0.30 °C1.04
11:30:002.90 °C1025.80 hPa84.00 %0.50 °C1.04
11:15:003.20 °C1025.70 hPa84.00 %0.80 °C1.04
11:00:002.90 °C1025.90 hPa85.00 %0.60 °C1.04
10:45:003.30 °C1025.90 hPa87.00 %1.30 °C1.04
10:30:002.90 °C1025.80 hPa89.00 %1.30 °C1.04
10:15:002.60 °C1025.80 hPa90.00 %1.10 °C1.04
10:00:001.80 °C1025.70 hPa90.00 %5.76 km/hOSO0.10 °C0.30 °C1.04
09:45:001.80 °C1025.70 hPa90.00 %0.30 °C1.04
09:30:001.90 °C1025.80 hPa91.00 %0.60 °C1.04
09:15:002.10 °C1025.70 hPa92.00 %0.90 °C1.04
09:00:002.10 °C1025.80 hPa92.00 %0.90 °C1.04
08:45:001.70 °C1025.60 hPa93.00 %0.70 °C1.04
08:30:001.60 °C1025.50 hPa93.00 %0.60 °C1.04
08:15:001.50 °C1025.50 hPa93.00 %0.50 °C0.52
08:00:001.20 °C1025.50 hPa93.00 %0.20 °C0.52
07:45:000.90 °C1025.30 hPa93.00 %-0.10 °C0.52
07:30:000.80 °C1025.50 hPa93.00 %-0.20 °C0.52
07:15:000.70 °C1025.40 hPa93.00 %-0.30 °C0.52
07:00:000.70 °C1025.20 hPa93.00 %-0.30 °C0.52
06:45:000.70 °C1025.10 hPa93.00 %-0.30 °C0.52
06:30:000.60 °C1025.00 hPa93.00 %-0.40 °C0.52
06:15:000.60 °C1024.80 hPa93.00 %-0.40 °C0.52
06:00:000.50 °C1024.90 hPa93.00 %-0.50 °C0.52
05:45:000.50 °C1024.70 hPa93.00 %-0.50 °C0.52
05:30:000.50 °C1024.80 hPa93.00 %-0.50 °C0.52
05:15:000.40 °C1024.50 hPa93.00 %-0.60 °C 
05:00:000.40 °C1024.50 hPa93.00 %-0.60 °C 
04:45:000.40 °C1024.40 hPa93.00 %-0.60 °C 
04:30:000.40 °C1024.40 hPa93.00 %-0.60 °C 
04:15:000.40 °C1024.40 hPa93.00 %-0.60 °C 
04:00:000.40 °C1024.50 hPa93.00 %-0.60 °C 
03:45:000.50 °C1024.20 hPa93.00 %-0.50 °C 
03:30:000.50 °C1024.30 hPa93.00 %-0.50 °C 
03:15:000.50 °C1024.20 hPa93.00 %-0.50 °C 
03:00:000.50 °C1024.00 hPa93.00 %-0.50 °C 
02:45:000.40 °C1024.10 hPa93.00 %-0.60 °C 
02:30:000.40 °C1024.20 hPa93.00 %-0.60 °C 
02:15:000.40 °C1024.30 hPa93.00 %-0.60 °C 
02:00:000.40 °C1024.30 hPa93.00 %-0.60 °C 
01:45:000.40 °C1024.20 hPa93.00 %-0.60 °C 
01:30:000.30 °C1024.10 hPa93.00 %-0.70 °C 
01:15:000.30 °C1024.00 hPa92.00 %-0.80 °C 
01:00:000.30 °C1024.10 hPa92.00 %-0.80 °C 
00:45:000.30 °C1023.90 hPa92.00 %-0.80 °C 
00:30:000.20 °C1024.00 hPa92.00 %-0.90 °C 
00:15:000.20 °C1024.10 hPa92.00 %-0.90 °C 
00:00:000.20 °C1024.00 hPa92.00 %-0.90 °C 

Permanenter Link zu dieser Seite: Wetter im Erzgebirge am 12.03.2015
Performance-Info: Die Erstellung der Seite / Statistik(en) / Tabelle(n) erforderte 5 Datenbankserver-Abfrage(n) und dauerte 101 Millisekunden. (Dieser Messwert ist von der Gesamt-Auslastung des Servers abhängig.)
Erzgebirge - Wetter | Erzgebirge - Wetter (Mobilgeräte) | Komplette Klimadatenbank